createdAt,value
2019-06-07T00:01:28.874Z,96538.51
2019-06-07T00:04:00.153Z,96531.19
2019-06-07T00:06:31.982Z,96530.73
2019-06-07T00:09:03.161Z,96535.67
2019-06-07T00:11:35.781Z,96526.06
2019-06-07T00:14:08.613Z,96522.73
2019-06-07T00:16:39.706Z,96519.59
2019-06-07T00:19:12.067Z,96509.52
2019-06-07T00:24:16.872Z,96493.49
2019-06-07T00:26:58.450Z,96496.26
2019-06-07T00:29:21.815Z,96499.78
2019-06-07T00:31:53.156Z,96504.34
2019-06-07T00:34:25.100Z,96489.16
2019-06-07T00:36:56.257Z,96488.34
2019-06-07T00:39:27.354Z,96485.16
2019-06-07T00:41:58.362Z,96483.69
2019-06-07T00:44:29.400Z,96484.25
2019-06-07T00:47:00.485Z,96489.81
2019-06-07T00:49:40.453Z,96487.64
2019-06-07T00:52:05.920Z,96485.95
2019-06-07T00:54:37.209Z,96483.47
2019-06-07T00:57:08.380Z,96486.98
2019-06-07T00:59:39.397Z,96478.84
2019-06-07T01:02:10.658Z,96478.43
2019-06-07T01:04:41.658Z,96478.71
2019-06-07T01:07:13.237Z,96475.50
2019-06-07T01:09:44.322Z,96468.44
2019-06-07T01:12:18.556Z,96473.02
2019-06-07T01:14:48.176Z,96477.42
2019-06-07T01:17:40.856Z,96486.67
2019-06-07T01:20:00.579Z,96485.05
2019-06-07T01:22:32.261Z,96484.23
2019-06-07T01:25:03.435Z,96488.20
2019-06-07T01:27:34.586Z,96495.39
2019-06-07T01:30:08.250Z,96486.22
2019-06-07T01:32:39.329Z,96481.98
2019-06-07T01:35:13.463Z,96476.42
2019-06-07T01:37:44.540Z,96481.53
2019-06-07T01:40:17.167Z,96478.54
2019-06-07T01:42:50.050Z,96479.06
2019-06-07T01:45:21.398Z,96477.95
2019-06-07T01:47:52.629Z,96474.15
2019-06-07T01:50:26.873Z,96476.77
2019-06-07T01:52:56.649Z,96469.22
2019-06-07T01:55:32.375Z,96468.79
2019-06-07T01:58:00.382Z,96465.72
2019-06-07T02:00:32.912Z,96467.48
2019-06-07T02:03:04.148Z,96463.36
2019-06-07T02:05:35.207Z,96467.16
2019-06-07T02:08:06.259Z,96461.93
2019-06-07T02:10:37.341Z,96465.61
2019-06-07T02:13:08.335Z,96462.75
2019-06-07T02:15:39.382Z,96463.25
2019-06-07T02:18:10.355Z,96458.26
2019-06-07T02:20:41.708Z,96450.12
2019-06-07T02:23:12.808Z,96461.02
2019-06-07T02:25:50.179Z,96452.32
2019-06-07T02:28:44.234Z,96450.47
2019-06-07T02:30:59.480Z,96454.48
2019-06-07T02:33:24.774Z,96445.62
2019-06-07T02:35:54.793Z,96445.19
2019-06-07T02:38:29.728Z,96441.45
2019-06-07T02:40:58.574Z,96435.73
2019-06-07T02:43:34.375Z,96434.84
2019-06-07T02:46:24.039Z,96435.84
2019-06-07T02:48:40.111Z,96437.17
2019-06-07T02:51:08.005Z,96431.77
2019-06-07T02:53:40.426Z,96430.95
2019-06-07T02:56:37.661Z,96425.67
2019-06-07T02:58:44.273Z,96418.56
2019-06-07T03:01:15.453Z,96434.09
2019-06-07T03:03:46.832Z,96430.19
2019-06-07T03:06:19.370Z,96420.88
2019-06-07T03:08:50.544Z,96417.36
2019-06-07T03:11:24.386Z,96412.80
2019-06-07T03:13:56.830Z,96413.63
2019-06-07T03:16:37.261Z,96408.39
2019-06-07T03:19:12.849Z,96402.16
2019-06-07T03:21:44.927Z,96394.70
2019-06-07T03:24:16.125Z,96406.24
2019-06-07T03:27:32.326Z,96395.46
2019-06-07T03:29:19.853Z,96385.75
2019-06-07T03:31:51.979Z,96393.61
2019-06-07T03:34:22.996Z,96383.74
2019-06-07T03:36:53.985Z,96378.58
2019-06-07T03:39:25.298Z,96373.69
2019-06-07T03:42:06.240Z,96378.41
2019-06-07T03:44:32.943Z,96377.98
2019-06-07T03:47:02.997Z,96373.97
2019-06-07T03:49:37.572Z,96374.89
2019-06-07T03:52:06.969Z,96379.01
2019-06-07T03:54:39.922Z,96387.49
2019-06-07T03:57:10.979Z,96386.55
2019-06-07T03:59:41.996Z,96392.65
2019-06-07T04:02:13.038Z,96394.03
2019-06-07T04:04:44.046Z,96384.73
2019-06-07T04:07:15.052Z,96386.77
2019-06-07T04:09:46.042Z,96378.41
2019-06-07T04:12:17.026Z,96370.55
2019-06-07T04:14:48.082Z,96366.98
2019-06-07T04:17:19.144Z,96365.16
2019-06-07T04:19:50.142Z,96368.23
2019-06-07T04:22:21.144Z,96365.66
2019-06-07T04:24:52.307Z,96364.27
2019-06-07T04:27:23.245Z,96360.47
2019-06-07T04:30:07.310Z,96358.52
2019-06-07T04:32:29.752Z,96352.18
2019-06-07T04:34:59.806Z,96348.95
2019-06-07T04:37:33.310Z,96344.20
2019-06-07T04:40:05.591Z,96331.78
2019-06-07T04:42:41.754Z,96335.69
2019-06-07T04:45:32.608Z,96332.94
2019-06-07T04:47:45.108Z,96330.45
2019-06-07T04:50:16.274Z,96332.43
2019-06-07T04:52:47.558Z,96326.66
2019-06-07T04:55:18.644Z,96329.06
2019-06-07T04:57:50.774Z,96329.45
2019-06-07T05:00:54.014Z,96329.02
2019-06-07T05:03:06.316Z,96325.05
2019-06-07T05:05:43.113Z,96329.71
2019-06-07T05:08:27.031Z,96329.70
2019-06-07T05:10:44.010Z,96338.08
2019-06-07T05:13:15.109Z,96340.02
2019-06-07T05:15:46.114Z,96336.47
2019-06-07T05:18:17.135Z,96336.30
2019-06-07T05:20:48.407Z,96344.50
2019-06-07T05:24:00.297Z,96352.72
2019-06-07T05:25:52.980Z,96346.56
2019-06-07T05:28:24.156Z,96341.84
2019-06-07T05:31:04.517Z,96334.22
2019-06-07T05:33:27.918Z,96338.61
2019-06-07T05:35:59.048Z,96341.08
2019-06-07T05:38:31.101Z,96336.11
2019-06-07T05:41:03.037Z,96334.56
2019-06-07T05:43:36.599Z,96329.05
2019-06-07T05:46:07.223Z,96332.06
2019-06-07T05:48:40.795Z,96324.11
2019-06-07T05:51:11.376Z,96323.70
2019-06-07T05:53:45.686Z,96320.59
2019-06-07T05:56:15.689Z,96316.22
2019-06-07T05:58:46.823Z,96313.67
2019-06-07T06:03:50.750Z,96306.98
2019-06-07T06:06:21.839Z,96311.13
2019-06-07T06:09:10.978Z,96302.92
2019-06-07T06:11:43.387Z,96305.44
2019-06-07T06:14:07.449Z,96306.27
2019-06-07T06:16:31.339Z,96298.48
2019-06-07T06:19:03.152Z,96299.55
2019-06-07T06:21:34.295Z,96300.41
2019-06-07T06:24:05.566Z,96291.45
2019-06-07T06:26:40.719Z,96294.71
2019-06-07T06:29:09.394Z,96293.05
2019-06-07T06:31:49.337Z,96286.23
2019-06-07T06:34:13.491Z,96287.31
2019-06-07T06:36:47.848Z,96281.64
2019-06-07T06:39:17.414Z,96289.75
2019-06-07T06:41:58.589Z,96282.98
2019-06-07T06:44:21.425Z,96295.52
2019-06-07T06:46:57.568Z,96288.50
2019-06-07T06:49:25.232Z,96281.44
2019-06-07T06:51:56.288Z,96286.62
2019-06-07T06:54:40.125Z,96289.89
2019-06-07T06:57:17.858Z,96290.03
2019-06-07T06:59:39.163Z,96286.70
2019-06-07T07:02:06.029Z,96283.21
2019-06-07T07:04:37.176Z,96275.44
2019-06-07T07:07:08.865Z,96268.66
2019-06-07T07:09:43.688Z,96259.04
2019-06-07T07:12:15.019Z,96263.29
2019-06-07T07:14:47.879Z,96260.63
2019-06-07T07:17:18.549Z,96253.56
2019-06-07T07:19:51.868Z,96253.97
2019-06-07T07:22:22.454Z,96252.70
2019-06-07T07:24:54.964Z,96243.66
2019-06-07T07:27:26.525Z,96245.82
2019-06-07T07:30:34.869Z,96240.02
2019-06-07T07:32:32.272Z,96233.37
2019-06-07T07:35:04.028Z,96227.84
2019-06-07T07:37:35.730Z,96229.20
2019-06-07T07:40:55.047Z,96223.56
2019-06-07T07:42:40.300Z,96214.05
2019-06-07T07:45:11.545Z,96207.40
2019-06-07T07:47:58.332Z,96206.88
2019-06-07T07:50:15.526Z,96202.38
2019-06-07T07:52:49.104Z,96197.06
2019-06-07T07:55:19.370Z,96194.14
2019-06-07T07:57:56.830Z,96185.38
2019-06-07T08:00:50.298Z,96176.86
2019-06-07T08:03:04.185Z,96169.40
2019-06-07T08:05:42.634Z,96174.23
2019-06-07T08:08:07.880Z,96169.73
2019-06-07T08:10:38.448Z,96173.70
2019-06-07T08:13:27.379Z,96169.19
2019-06-07T08:15:42.425Z,96164.09
2019-06-07T08:18:13.518Z,96160.88
2019-06-07T08:21:05.031Z,96154.74
2019-06-07T08:23:17.459Z,96156.87
2019-06-07T08:25:49.141Z,96157.11
2019-06-07T08:28:20.821Z,96150.63
2019-06-07T08:30:58.260Z,96155.39
2019-06-07T08:33:26.704Z,96151.06
2019-06-07T08:36:10.303Z,96152.87
2019-06-07T08:38:46.901Z,96140.78
2019-06-07T08:41:11.507Z,96141.42
2019-06-07T08:43:37.156Z,96134.22
2019-06-07T08:46:08.321Z,96134.45
2019-06-07T08:48:40.328Z,96136.23
2019-06-07T08:51:11.356Z,96137.55
2019-06-07T08:53:42.811Z,96129.43
2019-06-07T08:56:13.843Z,96126.12
2019-06-07T08:58:44.840Z,96122.09
2019-06-07T09:01:15.898Z,96117.17
2019-06-07T09:03:46.891Z,96113.09
2019-06-07T09:07:00.885Z,96111.92
2019-06-07T09:08:53.340Z,96110.80
2019-06-07T09:11:24.919Z,96106.55
2019-06-07T09:13:57.734Z,96096.59
2019-06-07T09:16:28.708Z,96096.38
2019-06-07T09:19:03.932Z,96097.64
2019-06-07T09:21:33.996Z,96098.98
2019-06-07T09:24:11.419Z,96089.61
2019-06-07T09:26:38.772Z,96084.09
2019-06-07T09:29:12.017Z,96089.56
2019-06-07T09:31:53.001Z,96091.92
2019-06-07T09:34:15.806Z,96084.66
2019-06-07T09:36:47.339Z,96078.74
2019-06-07T09:39:18.525Z,96077.11
2019-06-07T09:41:50.551Z,96077.35
2019-06-07T09:44:26.039Z,96072.30
2019-06-07T09:47:12.943Z,96072.03
2019-06-07T09:49:32.611Z,96065.83
2019-06-07T09:52:06.732Z,96068.80
2019-06-07T09:55:05.966Z,96079.18
2019-06-07T09:57:16.557Z,96073.58
2019-06-07T09:59:41.406Z,96068.75
2019-06-07T10:02:13.692Z,96067.26
2019-06-07T10:04:45.200Z,96065.67
2019-06-07T10:07:30.774Z,96052.05
2019-06-07T10:10:22.342Z,96053.09
2019-06-07T10:12:22.134Z,96052.48
2019-06-07T10:14:53.179Z,96047.97
2019-06-07T10:17:24.349Z,96053.75
2019-06-07T10:19:55.470Z,96048.44
2019-06-07T10:22:26.599Z,96041.60
2019-06-07T10:24:57.651Z,96049.49
2019-06-07T10:27:28.799Z,96040.80
2019-06-07T10:30:02.315Z,96043.09
2019-06-07T10:32:34.608Z,96038.89
2019-06-07T10:35:07.595Z,96036.09
2019-06-07T10:37:39.141Z,96030.11
2019-06-07T10:40:11.398Z,96028.29
2019-06-07T10:42:42.459Z,96028.38
2019-06-07T10:45:14.399Z,96024.99
2019-06-07T10:47:45.456Z,96021.91
2019-06-07T10:50:18.368Z,96022.55
2019-06-07T10:52:49.386Z,96010.59
2019-06-07T10:55:20.889Z,96009.25
2019-06-07T10:57:53.308Z,96005.95
2019-06-07T11:00:25.131Z,96006.50
2019-06-07T11:02:56.259Z,95998.30
2019-06-07T11:05:27.539Z,95992.69
2019-06-07T11:08:00.711Z,95994.89
2019-06-07T11:10:31.752Z,95995.33
2019-06-07T11:13:04.011Z,95997.09
2019-06-07T11:15:35.371Z,95995.38
2019-06-07T11:18:08.291Z,95986.94
2019-06-07T11:20:39.502Z,95975.46
2019-06-07T11:23:10.721Z,95979.41
2019-06-07T11:25:43.173Z,95975.66
2019-06-07T11:28:14.619Z,95981.21
2019-06-07T11:30:46.137Z,95968.95
2019-06-07T11:33:17.282Z,95970.38
2019-06-07T11:35:48.612Z,95964.19
2019-06-07T11:38:20.625Z,95972.33
2019-06-07T11:40:51.808Z,95965.30
2019-06-07T11:43:22.882Z,95965.06
2019-06-07T11:45:53.909Z,95966.68
2019-06-07T11:48:24.997Z,95962.48
2019-06-07T11:50:56.109Z,95952.76
2019-06-07T11:53:27.124Z,95961.45
2019-06-07T11:55:58.126Z,95956.52
2019-06-07T11:58:29.619Z,95950.90
2019-06-07T12:01:01.867Z,95942.75
2019-06-07T12:03:32.979Z,95932.47
2019-06-07T12:06:04.822Z,95928.66
2019-06-07T12:08:35.880Z,95922.02
2019-06-07T12:11:08.060Z,95923.59
2019-06-07T12:13:39.294Z,95918.28
2019-06-07T12:16:11.294Z,95911.64
2019-06-07T12:18:42.616Z,95913.07
2019-06-07T12:21:13.735Z,95910.61
2019-06-07T12:23:45.817Z,95897.78
2019-06-07T12:26:17.037Z,95901.02
2019-06-07T12:28:48.126Z,95894.62
2019-06-07T12:31:21.164Z,95891.21
2019-06-07T12:33:52.617Z,95898.11
2019-06-07T12:36:23.610Z,95892.94
2019-06-07T12:38:54.704Z,95890.25
2019-06-07T12:41:25.726Z,95888.43
2019-06-07T12:43:59.165Z,95885.19
2019-06-07T12:46:29.479Z,95888.76
2019-06-07T12:49:00.503Z,95882.11
2019-06-07T12:51:31.508Z,95878.77
2019-06-07T12:54:02.576Z,95869.12
2019-06-07T12:56:34.919Z,95859.45
2019-06-07T12:59:06.249Z,95846.63
2019-06-07T13:01:37.248Z,95847.89
2019-06-07T13:04:08.440Z,95848.61
2019-06-07T13:06:39.514Z,95845.34
2019-06-07T13:09:10.562Z,95847.40
2019-06-07T13:11:41.693Z,95845.02
2019-06-07T13:14:12.812Z,95840.75
2019-06-07T13:16:43.911Z,95843.59
2019-06-07T13:19:16.308Z,95836.85
2019-06-07T13:21:47.744Z,95843.50
2019-06-07T13:24:19.015Z,95838.91
2019-06-07T13:26:51.448Z,95834.09
2019-06-07T13:29:22.723Z,95830.17
2019-06-07T13:31:53.727Z,95830.14
2019-06-07T13:34:24.853Z,95814.75
2019-06-07T13:36:55.867Z,95812.18
2019-06-07T13:39:29.814Z,95811.84
2019-06-07T13:42:00.717Z,95808.33
2019-06-07T13:44:31.781Z,95804.73
2019-06-07T13:47:03.220Z,95803.44
2019-06-07T13:49:35.135Z,95798.45
2019-06-07T13:52:06.255Z,95808.23
2019-06-07T13:54:37.360Z,95802.82
2019-06-07T13:57:08.578Z,95804.88
2019-06-07T13:59:39.608Z,95804.94
2019-06-07T14:02:10.708Z,95801.56
2019-06-07T14:04:41.844Z,95797.97
2019-06-07T14:07:12.930Z,95792.34
2019-06-07T14:09:44.120Z,95785.84
2019-06-07T14:12:16.115Z,95789.58
2019-06-07T14:14:47.192Z,95792.36
2019-06-07T14:17:18.230Z,95788.77
2019-06-07T14:19:50.417Z,95791.72
2019-06-07T14:22:22.701Z,95782.95
2019-06-07T14:24:53.829Z,95777.43
2019-06-07T14:27:25.490Z,95761.25
2019-06-07T14:29:57.085Z,95759.30
2019-06-07T14:32:28.761Z,95757.50
2019-06-07T14:34:59.810Z,95762.98
2019-06-07T14:37:31.063Z,95762.69
2019-06-07T14:40:02.160Z,95764.78
2019-06-07T14:42:33.478Z,95766.45
2019-06-07T14:45:06.467Z,95772.42
2019-06-07T14:47:38.636Z,95776.41
2019-06-07T14:50:10.581Z,95779.58
2019-06-07T14:52:41.763Z,95780.77
2019-06-07T14:55:14.239Z,95792.96
2019-06-07T14:57:45.301Z,95791.59
2019-06-07T15:00:17.731Z,95795.84
2019-06-07T15:02:48.852Z,95798.38
2019-06-07T15:05:26.658Z,95791.71
2019-06-07T15:07:57.955Z,95803.05
2019-06-07T15:10:28.976Z,95808.03
2019-06-07T15:13:00.059Z,95800.48
2019-06-07T15:15:32.649Z,95789.38
2019-06-07T15:18:04.651Z,95788.92
2019-06-07T15:20:36.362Z,95784.56
2019-06-07T15:23:07.647Z,95796.12
2019-06-07T15:25:39.705Z,95807.03
2019-06-07T15:28:10.695Z,95811.50
2019-06-07T15:30:41.754Z,95810.19
2019-06-07T15:33:12.986Z,95815.32
2019-06-07T15:35:44.034Z,95814.87
2019-06-07T15:38:15.019Z,95819.42
2019-06-07T15:40:46.031Z,95818.17
2019-06-07T15:43:17.041Z,95816.05
2019-06-07T15:45:48.114Z,95826.88
2019-06-07T15:48:19.099Z,95823.79
2019-06-07T15:50:50.152Z,95820.37
2019-06-07T15:53:21.236Z,95820.61
2019-06-07T15:55:52.515Z,95835.42
2019-06-07T15:58:23.763Z,95837.86
2019-06-07T16:00:54.838Z,95837.09
2019-06-07T16:03:25.816Z,95851.72
2019-06-07T16:05:56.828Z,95853.48
2019-06-07T16:08:27.829Z,95852.88
2019-06-07T16:10:58.911Z,95853.35
2019-06-07T16:13:30.138Z,95863.00
2019-06-07T16:16:01.236Z,95865.72
2019-06-07T16:18:33.202Z,95859.07
2019-06-07T16:21:05.180Z,95860.65
2019-06-07T16:23:37.785Z,95862.06
2019-06-07T16:26:09.565Z,95871.41
2019-06-07T16:28:40.601Z,95886.94
2019-06-07T16:31:11.626Z,95891.53
2019-06-07T16:33:43.152Z,95907.91
2019-06-07T16:36:14.435Z,95917.05
2019-06-07T16:38:45.533Z,95922.32
2019-06-07T16:41:16.552Z,95919.73
2019-06-07T16:43:48.999Z,95932.79
2019-06-07T16:46:20.159Z,95933.17
2019-06-07T16:48:51.142Z,95946.23
2019-06-07T16:51:22.139Z,95946.01
2019-06-07T16:53:53.345Z,95962.88
2019-06-07T16:56:25.298Z,95966.85
2019-06-07T16:58:56.564Z,95978.16
2019-06-07T17:01:27.683Z,95970.39
2019-06-07T17:03:58.690Z,95971.66
2019-06-07T17:06:30.883Z,95988.01
2019-06-07T17:09:01.858Z,96003.62
2019-06-07T17:11:35.911Z,96029.73
2019-06-07T17:14:07.200Z,96035.06
2019-06-07T17:16:38.848Z,96048.50
2019-06-07T17:19:10.168Z,96048.73
2019-06-07T17:21:41.277Z,96066.09
2019-06-07T17:24:12.243Z,96090.53
2019-06-07T17:26:43.459Z,96101.51
2019-06-07T17:29:14.680Z,96104.91
2019-06-07T17:31:46.428Z,96105.34
2019-06-07T17:34:17.418Z,96104.06
2019-06-07T17:36:48.837Z,96110.77
2019-06-07T17:39:19.838Z,96125.77
2019-06-07T17:42:01.391Z,96133.34
2019-06-07T17:44:23.921Z,96139.92
2019-06-07T17:46:54.937Z,96143.17
2019-06-07T17:49:26.168Z,96148.98
2019-06-07T17:51:57.237Z,96185.28
2019-06-07T17:54:28.230Z,96186.20
2019-06-07T17:56:59.229Z,96183.08
2019-06-07T17:59:30.293Z,96166.00
2019-06-07T18:02:14.311Z,96203.97
2019-06-07T18:04:34.101Z,96206.70
2019-06-07T18:07:06.362Z,96225.11
2019-06-07T18:09:39.384Z,96234.46
2019-06-07T18:12:10.488Z,96251.79
2019-06-07T18:14:41.504Z,96261.63
2019-06-07T18:17:12.503Z,96266.46
2019-06-07T18:19:45.296Z,96273.94
2019-06-07T18:22:16.321Z,96298.19
2019-06-07T18:24:48.492Z,96285.66
2019-06-07T18:27:19.598Z,96311.50
2019-06-07T18:29:50.604Z,96301.36
2019-06-07T18:32:21.590Z,96313.09
2019-06-07T18:34:52.983Z,96317.06
2019-06-07T18:37:24.105Z,96310.40
2019-06-07T18:39:55.338Z,96318.64
2019-06-07T18:42:26.377Z,96332.22
2019-06-07T18:44:57.486Z,96353.03
2019-06-07T18:47:28.509Z,96377.00
2019-06-07T18:49:59.594Z,96380.44
2019-06-07T18:52:33.947Z,96409.47
2019-06-07T18:55:08.970Z,96412.14
2019-06-07T18:57:40.516Z,96417.66
2019-06-07T19:00:15.267Z,96409.48
2019-06-07T19:02:47.673Z,96415.80
2019-06-07T19:05:19.268Z,96444.62
2019-06-07T19:07:50.513Z,96458.27
2019-06-07T19:10:23.514Z,96450.81
2019-06-07T19:12:55.309Z,96454.33
2019-06-07T19:15:27.384Z,96448.50
2019-06-07T19:17:58.520Z,96451.77
2019-06-07T19:20:29.907Z,96456.33
2019-06-07T19:23:01.181Z,96463.00
2019-06-07T19:25:32.866Z,96494.13
2019-06-07T19:28:04.024Z,96514.00
2019-06-07T19:30:35.151Z,96532.49
2019-06-07T19:33:07.408Z,96532.19
2019-06-07T19:35:38.575Z,96553.50
2019-06-07T19:38:09.665Z,96566.29
2019-06-07T19:40:40.779Z,96565.21
2019-06-07T19:43:11.757Z,96567.00
2019-06-07T19:45:43.011Z,96568.21
2019-06-07T19:48:14.003Z,96556.24
2019-06-07T19:50:45.049Z,96560.81
2019-06-07T19:53:16.393Z,96561.09
2019-06-07T19:55:47.395Z,96579.97
2019-06-07T19:58:18.488Z,96590.94
2019-06-07T20:00:49.534Z,96598.94
2019-06-07T20:03:20.552Z,96613.59
2019-06-07T20:05:51.578Z,96637.31
2019-06-07T20:08:23.039Z,96634.08
2019-06-07T20:10:54.432Z,96639.27
2019-06-07T20:13:25.645Z,96642.72
2019-06-07T20:15:56.911Z,96651.75
2019-06-07T20:18:29.074Z,96653.09
2019-06-07T20:21:00.696Z,96655.45
2019-06-07T20:23:31.755Z,96649.26
2019-06-07T20:26:02.802Z,96647.87
2019-06-07T20:28:33.781Z,96632.73
2019-06-07T20:31:06.085Z,96637.56
2019-06-07T20:33:37.697Z,96661.27
2019-06-07T20:36:09.282Z,96658.49
2019-06-07T20:38:40.267Z,96684.28
2019-06-07T20:41:11.559Z,96685.02
2019-06-07T20:43:42.546Z,96673.59
2019-06-07T20:46:13.612Z,96680.20
2019-06-07T20:48:44.716Z,96682.27
2019-06-07T20:51:15.743Z,96681.39
2019-06-07T20:53:46.735Z,96676.53
2019-06-07T20:56:17.888Z,96666.94
2019-06-07T20:58:48.895Z,96677.87
2019-06-07T21:01:19.901Z,96668.78
2019-06-07T21:03:50.940Z,96670.33
2019-06-07T21:06:22.407Z,96683.13
2019-06-07T21:08:53.485Z,96698.13
2019-06-07T21:11:24.654Z,96683.95
2019-06-07T21:13:55.739Z,96669.47
2019-06-07T21:16:26.745Z,96659.69
2019-06-07T21:18:57.763Z,96640.80
2019-06-07T21:21:28.870Z,96642.37
2019-06-07T21:24:00.487Z,96640.77
2019-06-07T21:26:31.524Z,96656.70
2019-06-07T21:29:03.377Z,96682.48
2019-06-07T21:31:34.539Z,96684.89
2019-06-07T21:34:10.210Z,96697.69
2019-06-07T21:36:38.560Z,96705.02
2019-06-07T21:39:10.295Z,96685.00
2019-06-07T21:41:41.394Z,96687.42
2019-06-07T21:44:12.545Z,96696.13
2019-06-07T21:46:43.540Z,96694.88
2019-06-07T21:49:14.619Z,96701.91
2019-06-07T21:51:45.596Z,96699.55
2019-06-07T21:54:16.607Z,96701.73
2019-06-07T21:56:47.704Z,96720.14
2019-06-07T21:59:18.697Z,96719.95
2019-06-07T22:01:50.098Z,96721.20
2019-06-07T22:04:21.470Z,96712.56
2019-06-07T22:06:52.662Z,96717.09
2019-06-07T22:09:23.743Z,96711.74
2019-06-07T22:11:54.757Z,96691.02
2019-06-07T22:14:25.762Z,96691.11
2019-06-07T22:16:56.778Z,96721.61
2019-06-07T22:19:27.778Z,96757.20
2019-06-07T22:22:02.505Z,96775.22
2019-06-07T22:24:31.481Z,96768.75
2019-06-07T22:27:02.618Z,96775.16
2019-06-07T22:29:33.671Z,96762.55
2019-06-07T22:32:04.737Z,96782.23
2019-06-07T22:34:35.731Z,96800.16
2019-06-07T22:37:09.170Z,96793.98
2019-06-07T22:39:40.288Z,96804.97
2019-06-07T22:42:13.476Z,96800.52
2019-06-07T22:44:44.603Z,96793.16
2019-06-07T22:47:16.174Z,96784.42
2019-06-07T22:49:47.273Z,96781.22
2019-06-07T22:52:18.454Z,96807.55
2019-06-07T22:54:49.543Z,96820.40
2019-06-07T22:57:24.425Z,96813.48
2019-06-07T22:59:55.423Z,96802.55
2019-06-07T23:02:26.491Z,96795.25
2019-06-07T23:04:57.527Z,96789.38
2019-06-07T23:07:28.576Z,96784.73
2019-06-07T23:09:59.664Z,96775.83
2019-06-07T23:12:30.663Z,96780.94
2019-06-07T23:15:02.426Z,96795.31
2019-06-07T23:17:34.492Z,96781.57
2019-06-07T23:20:05.976Z,96779.70
2019-06-07T23:22:38.281Z,96776.97
2019-06-07T23:25:12.132Z,96779.23
2019-06-07T23:27:43.268Z,96791.92
2019-06-07T23:30:16.659Z,96782.67
2019-06-07T23:32:47.710Z,96794.46
2019-06-07T23:35:21.210Z,96778.53
2019-06-07T23:37:52.379Z,96782.63
2019-06-07T23:40:23.659Z,96781.50
2019-06-07T23:42:54.730Z,96785.25
2019-06-07T23:45:25.818Z,96764.23
2019-06-07T23:47:56.890Z,96757.64
2019-06-07T23:50:27.960Z,96779.51
2019-06-07T23:53:00.144Z,96776.53
2019-06-07T23:55:31.135Z,96787.63
2019-06-07T23:58:02.146Z,96801.41
